Time;durP1;ratioP1;P1;durP2;ratioP2;P2;SDS_P1;SDS_P2;PMS_P1;PMS_P2;Temp;Humidity;BMP_temperature;BMP_pressure;BME280_temperature;BME280_humidity;BME280_pressure;Samples;Min_cycle;Max_cycle;Signal;HPM_P1;HPM_P2
2024/03/24 00:01:14;;;;;;;16.35;3.78;;;;;;;;;;4944812;28;20051;-64
2024/03/24 00:03:40;;;;;;;14.60;3.53;;;;;;;;;;4959532;28;20498;-64
2024/03/24 00:06:07;;;;;;;10.32;3.25;;;;;;;;;;4946161;28;20043;-64
2024/03/24 00:08:33;;;;;;;20.48;4.30;;;;;;;;;;4962412;28;20097;-64
2024/03/24 00:10:59;;;;;;;13.32;4.18;;;;;;;;;;4961688;28;20043;-64
2024/03/24 00:13:26;;;;;;;13.52;3.75;;;;;;;;;;4961037;28;20051;-64
2024/03/24 00:15:52;;;;;;;11.50;3.75;;;;;;;;;;4957980;28;20067;-64
2024/03/24 00:18:18;;;;;;;17.73;4.82;;;;;;;;;;4959736;28;20053;-64
2024/03/24 00:20:44;;;;;;;19.70;5.93;;;;;;;;;;4962830;28;20049;-64
2024/03/24 00:23:10;;;;;;;21.23;5.50;;;;;;;;;;4961257;28;20482;-64
2024/03/24 00:25:37;;;;;;;21.25;5.40;;;;;;;;;;4962170;28;20047;-64
2024/03/24 00:28:03;;;;;;;17.08;5.55;;;;;;;;;;4959474;28;20121;-64
2024/03/24 00:30:29;;;;;;;18.42;5.97;;;;;;;;;;4947670;28;20051;-64
2024/03/24 00:32:56;;;;;;;17.45;5.70;;;;;;;;;;4956948;28;20181;-64
2024/03/24 00:35:22;;;;;;;18.42;6.57;;;;;;;;;;4946566;28;20115;-64
2024/03/24 00:37:48;;;;;;;21.10;6.35;;;;;;;;;;4944283;28;20062;-64
2024/03/24 00:40:14;;;;;;;18.90;6.88;;;;;;;;;;4946280;28;20142;-64
2024/03/24 00:42:41;;;;;;;31.10;7.18;;;;;;;;;;4944436;28;20380;-64
2024/03/24 00:45:08;;;;;;;21.80;6.43;;;;;;;;;;4963856;28;20493;-64
2024/03/24 00:47:34;;;;;;;16.83;4.93;;;;;;;;;;4963988;28;20043;-64
2024/03/24 00:50:01;;;;;;;11.02;2.90;;;;;;;;;;4962553;28;20142;-64
2024/03/24 00:52:27;;;;;;;9.25;2.33;;;;;;;;;;4965690;28;20043;-64
2024/03/24 00:54:53;;;;;;;6.75;2.70;;;;;;;;;;4947613;28;20566;-64
2024/03/24 00:57:19;;;;;;;10.15;2.30;;;;;;;;;;4964407;28;20059;-64
2024/03/24 00:59:45;;;;;;;10.65;1.80;;;;;;;;;;4966667;28;20058;-64
2024/03/24 01:02:12;;;;;;;10.73;2.30;;;;;;;;;;4967458;28;20046;-64
2024/03/24 01:04:38;;;;;;;5.93;1.90;;;;;;;;;;4967733;28;20125;-64
2024/03/24 01:07:04;;;;;;;8.18;1.75;;;;;;;;;;4949473;28;20051;-64
2024/03/24 01:09:30;;;;;;;4.05;1.30;;;;;;;;;;4963704;28;20406;-64
2024/03/24 01:11:56;;;;;;;5.63;1.50;;;;;;;;;;4967176;28;20451;-64
2024/03/24 01:14:22;;;;;;;4.35;1.20;;;;;;;;;;4965669;28;20053;-64
2024/03/24 01:16:49;;;;;;;4.13;1.08;;;;;;;;;;4965943;28;20078;-64
2024/03/24 01:19:15;;;;;;;6.05;1.52;;;;;;;;;;4947976;28;20057;-64
2024/03/24 01:21:41;;;;;;;13.63;1.52;;;;;;;;;;4966022;28;20521;-64
2024/03/24 01:24:07;;;;;;;8.93;1.45;;;;;;;;;;4963111;28;20061;-64
2024/03/24 01:26:34;;;;;;;3.90;1.15;;;;;;;;;;4948757;28;20054;-64
2024/03/24 01:29:00;;;;;;;5.93;1.50;;;;;;;;;;4965127;28;20043;-64
2024/03/24 01:31:27;;;;;;;4.53;1.52;;;;;;;;;;4959800;28;20042;-64
2024/03/24 01:33:53;;;;;;;8.60;1.65;;;;;;;;;;4963020;28;20394;-64
2024/03/24 01:36:19;;;;;;;5.05;1.75;;;;;;;;;;4963718;28;20066;-64
2024/03/24 01:38:45;;;;;;;5.28;1.40;;;;;;;;;;4963641;28;20075;-64
2024/03/24 01:41:11;;;;;;;4.25;1.15;;;;;;;;;;4962572;28;20038;-64
2024/03/24 01:43:38;;;;;;;6.10;1.33;;;;;;;;;;4963732;28;20118;-64
2024/03/24 01:46:04;;;;;;;9.15;1.55;;;;;;;;;;4965562;28;20066;-64
2024/03/24 01:48:30;;;;;;;8.05;2.25;;;;;;;;;;4960302;28;20205;-64
2024/03/24 01:50:57;;;;;;;4.47;1.40;;;;;;;;;;4962937;28;20125;-64
2024/03/24 01:53:23;;;;;;;7.45;2.25;;;;;;;;;;4965834;28;20049;-64
2024/03/24 01:55:50;;;;;;;3.42;1.30;;;;;;;;;;4965627;28;20225;-64
2024/03/24 01:58:16;;;;;;;3.95;1.67;;;;;;;;;;4963150;28;20054;-64
2024/03/24 02:00:45;;;;;;;4.97;1.73;;;;;;;;;;4964367;28;20047;-64
2024/03/24 02:03:11;;;;;;;7.95;1.30;;;;;;;;;;4965253;28;20126;-64
2024/03/24 02:05:37;;;;;;;12.02;4.13;;;;;;;;;;4965970;28;20089;-64
2024/03/24 02:08:04;;;;;;;6.07;1.60;;;;;;;;;;4963113;28;20131;-64
2024/03/24 02:10:30;;;;;;;6.68;1.75;;;;;;;;;;4965995;28;20049;-64
2024/03/24 02:12:56;;;;;;;7.25;1.60;;;;;;;;;;4949604;28;20062;-64
2024/03/24 02:15:23;;;;;;;4.63;1.35;;;;;;;;;;4948567;28;20061;-64
2024/03/24 02:17:50;;;;;;;6.32;1.70;;;;;;;;;;4965055;28;20410;-64
2024/03/24 02:20:16;;;;;;;4.85;1.60;;;;;;;;;;4948041;28;20094;-64
2024/03/24 02:22:43;;;;;;;6.75;1.63;;;;;;;;;;4966048;28;20039;-64
2024/03/24 02:25:09;;;;;;;6.85;2.03;;;;;;;;;;4961645;28;20062;-64
2024/03/24 02:27:35;;;;;;;9.07;2.40;;;;;;;;;;4965408;28;20043;-64
2024/03/24 02:30:03;;;;;;;7.43;2.13;;;;;;;;;;4949681;28;20050;-64
2024/03/24 02:32:29;;;;;;;10.00;2.47;;;;;;;;;;4963220;28;21333;-64
2024/03/24 02:34:55;;;;;;;8.35;2.30;;;;;;;;;;4965436;28;20047;-64
2024/03/24 02:37:21;;;;;;;9.32;2.13;;;;;;;;;;4965894;28;20404;-64
2024/03/24 02:39:47;;;;;;;15.23;3.30;;;;;;;;;;4948754;28;20050;-64
2024/03/24 02:42:14;;;;;;;10.25;2.17;;;;;;;;;;4962359;28;20070;-64
2024/03/24 02:44:41;;;;;;;10.30;2.30;;;;;;;;;;4962731;28;20038;-64
2024/03/24 02:47:07;;;;;;;44.58;4.57;;;;;;;;;;4965971;28;20049;-64
2024/03/24 02:49:34;;;;;;;13.20;2.50;;;;;;;;;;4964702;28;20035;-64
2024/03/24 02:52:00;;;;;;;11.73;2.58;;;;;;;;;;4964291;28;20089;-64
2024/03/24 02:54:26;;;;;;;7.93;2.25;;;;;;;;;;4964572;28;20047;-64
2024/03/24 02:56:52;;;;;;;12.90;2.90;;;;;;;;;;4965081;28;20041;-64
2024/03/24 02:59:18;;;;;;;12.68;2.92;;;;;;;;;;4964408;28;20051;-64
2024/03/24 03:01:45;;;;;;;12.70;2.97;;;;;;;;;;4947574;28;20049;-64
2024/03/24 03:04:11;;;;;;;7.75;2.10;;;;;;;;;;4948895;28;20462;-64
2024/03/24 03:06:37;;;;;;;6.10;1.80;;;;;;;;;;4961675;28;20134;-64
2024/03/24 03:09:07;;;;;;;9.52;1.85;;;;;;;;;;4959287;28;20466;-64
2024/03/24 03:11:34;;;;;;;7.72;2.45;;;;;;;;;;4961456;28;20047;-64
2024/03/24 03:14:00;;;;;;;5.65;1.95;;;;;;;;;;4957707;28;20391;-64
2024/03/24 03:16:26;;;;;;;8.00;1.95;;;;;;;;;;4948429;28;20038;-64
2024/03/24 03:18:53;;;;;;;8.45;2.13;;;;;;;;;;4963077;28;20058;-64
2024/03/24 03:21:19;;;;;;;12.00;2.17;;;;;;;;;;4949735;28;20046;-64
2024/03/24 03:23:45;;;;;;;7.38;2.13;;;;;;;;;;4961090;28;20106;-64
2024/03/24 03:26:11;;;;;;;11.48;2.20;;;;;;;;;;4933238;28;20546;-64
2024/03/24 03:28:37;;;;;;;11.77;2.78;;;;;;;;;;4952493;28;20061;-64
2024/03/24 03:31:03;;;;;;;9.48;2.10;;;;;;;;;;4946083;28;20106;-64
2024/03/24 03:33:30;;;;;;;12.65;2.47;;;;;;;;;;4945255;28;20522;-64
2024/03/24 03:35:56;;;;;;;19.20;3.22;;;;;;;;;;4946476;28;20042;-64
2024/03/24 03:38:22;;;;;;;11.98;3.38;;;;;;;;;;4945868;28;20047;-64
2024/03/24 03:40:48;;;;;;;12.50;2.40;;;;;;;;;;4945734;28;20067;-64
2024/03/24 03:43:16;;;;;;;11.52;2.30;;;;;;;;;;4963066;28;20430;-64
2024/03/24 03:45:43;;;;;;;12.48;2.50;;;;;;;;;;4964595;28;20043;-64
2024/03/24 03:48:09;;;;;;;20.30;3.35;;;;;;;;;;4965412;28;20467;-64
2024/03/24 03:50:37;;;;;;;7.65;2.22;;;;;;;;;;4960654;28;20050;-64
2024/03/24 03:53:04;;;;;;;17.58;4.07;;;;;;;;;;4947085;28;20054;-65
2024/03/24 03:55:33;;;;;;;14.25;2.50;;;;;;;;;;4945170;28;20512;-64
2024/03/24 03:57:59;;;;;;;10.45;2.25;;;;;;;;;;4966176;28;20053;-64
2024/03/24 04:00:25;;;;;;;11.23;2.50;;;;;;;;;;4965482;28;20193;-64
2024/03/24 04:02:52;;;;;;;13.50;3.28;;;;;;;;;;4944397;28;20054;-64
2024/03/24 04:05:18;;;;;;;11.60;2.20;;;;;;;;;;4947718;28;20071;-64
2024/03/24 04:07:44;;;;;;;10.65;2.97;;;;;;;;;;4946627;28;20371;-64
2024/03/24 04:10:11;;;;;;;11.98;2.88;;;;;;;;;;4946634;28;20061;-64
2024/03/24 04:12:37;;;;;;;15.07;2.05;;;;;;;;;;4947286;28;20482;-64
2024/03/24 04:15:04;;;;;;;9.73;2.35;;;;;;;;;;4965707;28;20056;-64
2024/03/24 04:17:30;;;;;;;17.58;2.90;;;;;;;;;;4963846;28;20761;-64
2024/03/24 04:19:57;;;;;;;7.47;2.25;;;;;;;;;;4964806;28;20047;-64
2024/03/24 04:22:23;;;;;;;10.38;1.90;;;;;;;;;;4945974;28;20049;-64
2024/03/24 04:24:50;;;;;;;14.82;2.40;;;;;;;;;;4945885;28;20114;-64
2024/03/24 04:27:16;;;;;;;9.23;2.10;;;;;;;;;;4947009;28;20047;-64
2024/03/24 04:29:43;;;;;;;9.00;1.83;;;;;;;;;;4928886;28;20047;-64
2024/03/24 04:32:10;;;;;;;14.15;2.13;;;;;;;;;;4965130;28;20049;-64
2024/03/24 04:34:36;;;;;;;17.85;2.38;;;;;;;;;;4963993;28;20407;-64
2024/03/24 04:37:02;;;;;;;16.02;1.95;;;;;;;;;;4944854;28;20386;-64
2024/03/24 04:39:29;;;;;;;11.68;1.83;;;;;;;;;;4961467;28;20059;-64
2024/03/24 04:41:56;;;;;;;14.02;2.15;;;;;;;;;;4947116;28;20062;-64
2024/03/24 04:44:22;;;;;;;17.92;2.35;;;;;;;;;;4943309;28;20404;-64
2024/03/24 04:46:48;;;;;;;10.57;2.10;;;;;;;;;;4958871;28;20046;-64
2024/03/24 04:49:15;;;;;;;11.38;2.15;;;;;;;;;;4960884;28;20329;-64
2024/03/24 04:51:41;;;;;;;10.63;2.08;;;;;;;;;;4958565;28;20046;-64
2024/03/24 04:54:07;;;;;;;11.70;2.78;;;;;;;;;;4960758;28;20051;-64
2024/03/24 04:56:33;;;;;;;14.10;2.47;;;;;;;;;;4962381;28;20046;-64
2024/03/24 04:58:59;;;;;;;17.60;4.50;;;;;;;;;;4962097;28;20054;-64
2024/03/24 05:01:26;;;;;;;16.65;2.85;;;;;;;;;;4962940;28;20058;-64
2024/03/24 05:03:52;;;;;;;18.73;3.55;;;;;;;;;;4962451;28;20042;-64
2024/03/24 05:06:19;;;;;;;23.85;3.60;;;;;;;;;;4963217;28;20050;-64
2024/03/24 05:08:46;;;;;;;14.50;2.42;;;;;;;;;;4945563;28;20051;-64
2024/03/24 05:11:12;;;;;;;19.92;3.25;;;;;;;;;;4961240;28;20094;-64
2024/03/24 05:13:39;;;;;;;24.17;2.70;;;;;;;;;;4944397;28;20055;-64
2024/03/24 05:16:07;;;;;;;17.08;3.22;;;;;;;;;;4962159;28;20040;-64
2024/03/24 05:18:36;;;;;;;16.48;3.08;;;;;;;;;;4961253;28;20050;-64
2024/03/24 05:21:04;;;;;;;22.75;3.10;;;;;;;;;;4961842;28;20458;-64
2024/03/24 05:23:30;;;;;;;20.83;3.28;;;;;;;;;;4963583;28;20490;-64
2024/03/24 05:25:56;;;;;;;20.70;4.10;;;;;;;;;;4963952;28;20393;-64
2024/03/24 05:28:22;;;;;;;25.90;3.92;;;;;;;;;;4961014;28;20149;-64
2024/03/24 05:30:50;;;;;;;20.13;2.90;;;;;;;;;;4961212;28;20359;-64
2024/03/24 05:33:16;;;;;;;30.58;4.82;;;;;;;;;;4961491;28;20382;-64
2024/03/24 05:35:43;;;;;;;19.73;3.58;;;;;;;;;;4940251;28;20512;-64
2024/03/24 05:38:09;;;;;;;23.60;4.13;;;;;;;;;;4963036;28;20091;-64
2024/03/24 05:40:35;;;;;;;32.47;5.55;;;;;;;;;;4963107;28;20113;-64
2024/03/24 05:43:01;;;;;;;17.73;3.33;;;;;;;;;;4964652;28;20075;-64
2024/03/24 05:45:28;;;;;;;17.73;2.60;;;;;;;;;;4945918;28;20050;-64
2024/03/24 05:47:54;;;;;;;31.27;5.70;;;;;;;;;;4960081;28;20066;-64
2024/03/24 05:50:20;;;;;;;27.33;4.70;;;;;;;;;;4948790;28;20086;-64
2024/03/24 05:52:46;;;;;;;27.77;5.05;;;;;;;;;;4959910;28;20078;-64
2024/03/24 05:55:15;;;;;;;17.35;3.35;;;;;;;;;;4958946;28;20034;-64
2024/03/24 05:57:41;;;;;;;29.63;3.92;;;;;;;;;;4954128;28;20062;-64
2024/03/24 06:00:09;;;;;;;17.55;3.20;;;;;;;;;;4946297;28;20355;-64
2024/03/24 06:02:35;;;;;;;14.88;2.85;;;;;;;;;;4949161;28;20051;-64
2024/03/24 06:05:01;;;;;;;20.67;3.75;;;;;;;;;;4961758;28;20050;-64
2024/03/24 06:07:29;;;;;;;26.33;5.57;;;;;;;;;;4962208;28;20075;-64
2024/03/24 06:09:55;;;;;;;25.80;3.70;;;;;;;;;;4961430;28;20520;-64
2024/03/24 06:12:22;;;;;;;29.30;4.72;;;;;;;;;;4946323;28;20039;-64
2024/03/24 06:14:48;;;;;;;25.20;4.93;;;;;;;;;;4963396;28;20042;-64
2024/03/24 06:17:15;;;;;;;19.25;3.22;;;;;;;;;;4964414;28;20049;-64
2024/03/24 06:19:41;;;;;;;15.70;3.28;;;;;;;;;;4959049;28;20047;-64
2024/03/24 06:22:07;;;;;;;11.68;1.90;;;;;;;;;;4960111;28;20050;-64
2024/03/24 06:24:34;;;;;;;12.77;1.30;;;;;;;;;;4946945;28;20523;-64
2024/03/24 06:27:00;;;;;;;12.75;2.65;;;;;;;;;;4960958;28;20047;-64
2024/03/24 06:29:26;;;;;;;8.88;1.67;;;;;;;;;;4965006;28;20154;-64
2024/03/24 06:31:52;;;;;;;15.57;1.98;;;;;;;;;;4962713;28;20043;-64
2024/03/24 06:34:18;;;;;;;17.75;1.90;;;;;;;;;;4947834;28;20113;-64
2024/03/24 06:36:45;;;;;;;13.80;2.03;;;;;;;;;;4963835;28;20068;-64
2024/03/24 06:39:11;;;;;;;9.20;2.22;;;;;;;;;;4948356;28;20443;-64
2024/03/24 06:41:43;;;;;;;16.10;2.45;;;;;;;;;;4947897;28;20061;-64
2024/03/24 06:44:13;;;;;;;11.98;1.60;;;;;;;;;;4959183;28;20503;-64
2024/03/24 06:46:40;;;;;;;10.70;1.73;;;;;;;;;;4957707;28;20051;-64
2024/03/24 06:49:08;;;;;;;12.90;1.63;;;;;;;;;;4944941;28;20057;-64
2024/03/24 06:51:34;;;;;;;12.13;2.33;;;;;;;;;;4963525;28;20043;-64
2024/03/24 06:54:00;;;;;;;10.93;1.80;;;;;;;;;;4963710;28;20430;-64
2024/03/24 06:56:26;;;;;;;11.40;1.80;;;;;;;;;;4947605;28;20150;-64
2024/03/24 06:58:53;;;;;;;13.48;1.95;;;;;;;;;;4945201;28;20046;-64
2024/03/24 07:01:19;;;;;;;26.42;4.68;;;;;;;;;;4962576;28;20410;-64
2024/03/24 07:03:45;;;;;;;18.52;2.45;;;;;;;;;;4949314;28;20190;-64
2024/03/24 07:06:13;;;;;;;16.60;2.25;;;;;;;;;;4945988;28;20105;-64
2024/03/24 07:08:39;;;;;;;13.13;3.17;;;;;;;;;;4946625;28;20101;-64
2024/03/24 07:11:06;;;;;;;17.55;3.45;;;;;;;;;;4947960;28;20049;-64
2024/03/24 07:13:32;;;;;;;8.25;1.38;;;;;;;;;;4963482;28;20050;-64
2024/03/24 07:15:58;;;;;;;7.65;1.42;;;;;;;;;;4946236;28;20043;-64
2024/03/24 07:18:24;;;;;;;12.18;1.95;;;;;;;;;;4944047;28;20047;-64
2024/03/24 07:20:58;;;;;;;5.05;1.23;;;;;;;;;;4947056;28;20078;-63
2024/03/24 07:23:24;;;;;;;;;;;;;;;;;;4953686;28;20057;-62
2024/03/24 07:25:50;;;;;;;8.93;1.92;;;;;;;;;;4948770;28;19942;-62
2024/03/24 07:28:17;;;;;;;11.55;2.05;;;;;;;;;;4965892;28;20051;-62
2024/03/24 07:30:43;;;;;;;8.50;1.50;;;;;;;;;;4949109;28;20126;-62
2024/03/24 07:33:11;;;;;;;10.43;1.75;;;;;;;;;;4963504;28;20047;-63
2024/03/24 07:35:37;;;;;;;12.80;2.13;;;;;;;;;;4949290;28;20043;-62
2024/03/24 07:38:03;;;;;;;16.83;2.33;;;;;;;;;;4967196;28;20189;-62
2024/03/24 07:40:29;;;;;;;9.93;1.83;;;;;;;;;;4963251;28;20063;-62
2024/03/24 07:42:56;;;;;;;11.73;1.52;;;;;;;;;;4962587;28;20105;-74
2024/03/24 07:45:23;;;;;;;12.30;1.27;;;;;;;;;;4938558;28;20043;-62
2024/03/24 07:47:51;;;;;;;8.70;1.42;;;;;;;;;;4963980;28;20053;-63
2024/03/24 07:50:17;;;;;;;10.13;1.45;;;;;;;;;;4946124;28;20085;-62
2024/03/24 07:52:43;;;;;;;15.27;1.63;;;;;;;;;;4947526;28;20133;-63
2024/03/24 07:55:10;;;;;;;12.55;1.45;;;;;;;;;;4962915;28;20063;-63
2024/03/24 07:57:38;;;;;;;12.57;1.92;;;;;;;;;;4966742;28;20042;-63
2024/03/24 08:00:06;;;;;;;18.63;2.33;;;;;;;;;;4966589;28;20055;-63
2024/03/24 08:02:32;;;;;;;14.13;1.85;;;;;;;;;;4949427;28;20144;-63
2024/03/24 08:04:59;;;;;;;15.65;2.67;;;;;;;;;;4968162;28;20047;-63
2024/03/24 08:07:26;;;;;;;18.02;2.05;;;;;;;;;;4960074;28;20054;-63
2024/03/24 08:09:52;;;;;;;11.05;1.83;;;;;;;;;;4965655;28;20065;-63
2024/03/24 08:12:19;;;;;;;16.63;2.42;;;;;;;;;;4967025;28;20049;-63
2024/03/24 08:14:46;;;;;;;12.77;2.33;;;;;;;;;;4964830;28;20166;-63
2024/03/24 08:17:12;;;;;;;10.90;2.08;;;;;;;;;;4950209;28;20211;-63
2024/03/24 08:19:38;;;;;;;16.00;2.40;;;;;;;;;;4970962;28;20041;-63
2024/03/24 08:22:04;;;;;;;19.83;3.47;;;;;;;;;;4969612;28;20042;-62
2024/03/24 08:24:31;;;;;;;19.48;2.65;;;;;;;;;;4953354;28;20062;-62
2024/03/24 08:26:57;;;;;;;15.20;3.75;;;;;;;;;;4947428;28;20043;-63
2024/03/24 08:29:23;;;;;;;20.63;3.08;;;;;;;;;;4969279;28;20125;-63
2024/03/24 08:31:49;;;;;;;25.00;2.90;;;;;;;;;;4953590;28;20056;-63
2024/03/24 08:34:15;;;;;;;28.63;3.28;;;;;;;;;;4970775;28;20043;-63
2024/03/24 08:36:42;;;;;;;26.85;3.78;;;;;;;;;;4969593;28;20050;-63
2024/03/24 08:39:09;;;;;;;24.17;4.20;;;;;;;;;;4970356;28;20047;-63
2024/03/24 08:41:35;;;;;;;30.02;4.78;;;;;;;;;;4966846;28;20046;-63
2024/03/24 08:44:02;;;;;;;27.95;4.57;;;;;;;;;;4947010;28;20130;-63
2024/03/24 08:46:29;;;;;;;23.15;3.50;;;;;;;;;;4965420;28;20048;-63
2024/03/24 08:48:55;;;;;;;21.30;5.38;;;;;;;;;;4947224;28;20549;-63
2024/03/24 08:51:22;;;;;;;32.97;4.80;;;;;;;;;;4964700;28;20083;-63
2024/03/24 08:53:48;;;;;;;24.27;4.90;;;;;;;;;;4965717;28;20054;-63
2024/03/24 08:56:14;;;;;;;24.77;3.65;;;;;;;;;;4966463;28;20078;-63
2024/03/24 08:58:40;;;;;;;26.35;6.68;;;;;;;;;;4969338;28;20110;-62
2024/03/24 09:01:07;;;;;;;33.08;6.35;;;;;;;;;;4949503;28;20047;-63
2024/03/24 09:03:33;;;;;;;31.00;5.65;;;;;;;;;;4968529;28;20047;-63
2024/03/24 09:05:59;;;;;;;39.13;6.45;;;;;;;;;;4963139;28;20090;-64
2024/03/24 09:08:26;;;;;;;29.83;4.75;;;;;;;;;;4943193;28;20067;-63
2024/03/24 09:10:52;;;;;;;21.92;4.63;;;;;;;;;;4952547;28;20055;-62
2024/03/24 09:13:19;;;;;;;27.63;4.63;;;;;;;;;;4971908;28;20057;-63
2024/03/24 09:15:45;;;;;;;20.80;5.25;;;;;;;;;;4955126;28;20079;-63
2024/03/24 09:18:11;;;;;;;18.17;3.17;;;;;;;;;;4940378;28;20482;-63
2024/03/24 09:20:37;;;;;;;10.63;2.17;;;;;;;;;;4970437;28;20129;-63
2024/03/24 09:23:04;;;;;;;14.63;2.15;;;;;;;;;;4955167;28;20059;-63
2024/03/24 09:25:31;;;;;;;25.23;2.30;;;;;;;;;;4953550;28;20063;-64
2024/03/24 09:27:58;;;;;;;11.82;1.90;;;;;;;;;;4974513;28;20043;-64
2024/03/24 09:30:24;;;;;;;10.00;1.77;;;;;;;;;;4956438;28;20186;-64
2024/03/24 09:32:51;;;;;;;11.60;2.08;;;;;;;;;;4973622;28;20455;-64
2024/03/24 09:35:18;;;;;;;12.50;2.25;;;;;;;;;;4974031;28;20113;-64
2024/03/24 09:37:44;;;;;;;13.65;3.08;;;;;;;;;;4974545;28;20102;-64
2024/03/24 09:40:10;;;;;;;15.48;2.78;;;;;;;;;;4973321;28;20509;-64
2024/03/24 09:42:37;;;;;;;17.98;3.13;;;;;;;;;;4956716;28;20054;-64
2024/03/24 09:45:04;;;;;;;12.43;2.72;;;;;;;;;;4974161;28;20039;-64
2024/03/24 09:47:33;;;;;;;18.90;2.72;;;;;;;;;;4973317;28;20077;-64
2024/03/24 09:50:00;;;;;;;20.17;4.18;;;;;;;;;;4955492;28;20051;-64
2024/03/24 09:52:29;;;;;;;26.70;4.30;;;;;;;;;;4956474;28;20063;-64
2024/03/24 09:54:56;;;;;;;23.38;4.93;;;;;;;;;;4973078;28;20047;-62
2024/03/24 09:57:25;;;;;;;23.17;4.35;;;;;;;;;;4956662;28;20050;-62
2024/03/24 09:59:53;;;;;;;26.05;4.30;;;;;;;;;;4956297;28;20094;-62
2024/03/24 10:02:19;;;;;;;25.88;5.22;;;;;;;;;;4972910;28;20445;-62
2024/03/24 10:04:45;;;;;;;34.28;5.22;;;;;;;;;;4955524;28;20047;-62
2024/03/24 10:07:12;;;;;;;31.40;5.05;;;;;;;;;;4973477;28;20082;-62
2024/03/24 10:09:38;;;;;;;35.47;5.22;;;;;;;;;;4953400;28;20134;-62
2024/03/24 10:12:12;;;;;;;33.42;5.32;;;;;;;;;;4955638;28;20071;-62
2024/03/24 10:14:39;;;;;;;31.45;4.47;;;;;;;;;;4954953;28;20063;-64
2024/03/24 10:17:19;;;;;;;31.25;5.60;;;;;;;;;;4973499;28;20053;-62
2024/03/24 10:19:46;;;;;;;39.30;5.95;;;;;;;;;;4954902;28;20114;-62
2024/03/24 10:22:13;;;;;;;27.48;5.22;;;;;;;;;;4972540;28;20091;-62
2024/03/24 10:24:39;;;;;;;24.40;4.70;;;;;;;;;;4973149;28;20049;-62
2024/03/24 10:27:05;;;;;;;31.92;6.20;;;;;;;;;;4973243;28;20117;-62
2024/03/24 10:29:31;;;;;;;31.20;5.65;;;;;;;;;;4972456;28;20522;-62
2024/03/24 10:31:57;;;;;;;27.52;4.72;;;;;;;;;;4973309;28;20049;-62
2024/03/24 10:34:24;;;;;;;29.35;4.75;;;;;;;;;;4973350;28;20046;-64
2024/03/24 10:36:50;;;;;;;23.40;3.78;;;;;;;;;;4954115;28;20092;-62
2024/03/24 10:39:16;;;;;;;26.92;4.38;;;;;;;;;;4968081;28;20194;-61
2024/03/24 10:41:43;;;;;;;20.15;4.68;;;;;;;;;;4950897;28;20050;-62
2024/03/24 10:44:09;;;;;;;22.35;3.40;;;;;;;;;;4962371;28;20463;-63
2024/03/24 10:46:37;;;;;;;27.13;5.90;;;;;;;;;;4943066;29;20047;-63
2024/03/24 10:49:04;;;;;;;20.85;4.03;;;;;;;;;;4972096;28;20039;-62
2024/03/24 10:51:31;;;;;;;23.60;4.82;;;;;;;;;;4955211;28;20126;-63
2024/03/24 10:54:03;;;;;;;23.90;3.38;;;;;;;;;;4972152;28;20184;-63
2024/03/24 10:56:31;;;;;;;23.67;5.25;;;;;;;;;;4950134;28;20182;-62
2024/03/24 10:58:59;;;;;;;17.98;3.13;;;;;;;;;;4964754;28;20043;-62
2024/03/24 11:01:26;;;;;;;19.40;4.00;;;;;;;;;;4961145;28;20057;-63
2024/03/24 11:03:54;;;;;;;26.67;3.65;;;;;;;;;;4962499;28;20506;-63
2024/03/24 11:06:20;;;;;;;25.42;3.85;;;;;;;;;;4959622;28;20472;-62
2024/03/24 11:08:46;;;;;;;20.02;3.92;;;;;;;;;;4964348;28;20483;-62
2024/03/24 11:11:12;;;;;;;22.30;4.15;;;;;;;;;;4961325;28;20081;-62
2024/03/24 11:13:39;;;;;;;29.38;4.72;;;;;;;;;;4949141;28;20078;-62
2024/03/24 11:16:07;;;;;;;33.80;5.32;;;;;;;;;;4963977;28;20124;-62
2024/03/24 11:18:33;;;;;;;23.17;4.80;;;;;;;;;;4960272;28;20054;-62
2024/03/24 11:21:01;;;;;;;22.13;4.20;;;;;;;;;;4945092;28;20042;-62
2024/03/24 11:23:34;;;;;;;27.65;3.28;;;;;;;;;;4962017;28;20122;-62
2024/03/24 11:26:02;;;;;;;31.98;5.13;;;;;;;;;;4944265;28;20054;-62
2024/03/24 11:28:41;;;;;;;24.85;3.88;;;;;;;;;;4961265;28;20039;-63
2024/03/24 11:31:13;;;;;;;24.15;4.32;;;;;;;;;;4954358;28;20054;-63
2024/03/24 11:33:39;;;;;;;35.58;5.45;;;;;;;;;;4961120;28;20414;-63
2024/03/24 11:36:15;;;;;;;23.10;3.80;;;;;;;;;;4964128;28;20038;-63
2024/03/24 11:38:41;;;;;;;24.27;4.22;;;;;;;;;;4964426;28;20056;-63
2024/03/24 11:41:07;;;;;;;29.73;4.32;;;;;;;;;;4962380;28;20042;-63
2024/03/24 11:43:34;;;;;;;22.83;3.90;;;;;;;;;;4946969;28;20067;-63
2024/03/24 11:46:09;;;;;;;28.50;5.75;;;;;;;;;;4963678;28;20062;-63
2024/03/24 11:48:38;;;;;;;24.33;5.38;;;;;;;;;;4946623;28;20054;-63
2024/03/24 11:51:05;;;;;;;27.35;4.63;;;;;;;;;;4961125;28;20077;-63
2024/03/24 11:53:32;;;;;;;17.50;3.58;;;;;;;;;;4942963;28;20050;-63
2024/03/24 11:55:59;;;;;;;9.73;2.13;;;;;;;;;;4949632;28;20047;-63
2024/03/24 11:58:26;;;;;;;13.15;2.00;;;;;;;;;;4962986;28;20066;-63
2024/03/24 12:00:52;;;;;;;13.30;2.38;;;;;;;;;;4962868;28;20230;-63
2024/03/24 12:03:19;;;;;;;16.80;4.20;;;;;;;;;;4965367;28;20062;-63
2024/03/24 12:05:46;;;;;;;12.57;2.85;;;;;;;;;;4945430;28;20051;-64
2024/03/24 12:08:12;;;;;;;15.52;3.95;;;;;;;;;;4947915;28;20059;-64
2024/03/24 12:10:39;;;;;;;15.43;3.10;;;;;;;;;;4939717;28;20055;-64
2024/03/24 12:13:05;;;;;;;21.58;3.47;;;;;;;;;;4946535;28;20379;-64
2024/03/24 12:15:32;;;;;;;23.85;3.78;;;;;;;;;;4947447;28;20031;-64
2024/03/24 12:18:08;;;;;;;19.95;4.05;;;;;;;;;;4948887;28;20513;-64
2024/03/24 12:20:34;;;;;;;24.27;4.20;;;;;;;;;;4947768;28;20047;-64
2024/03/24 12:23:01;;;;;;;22.38;4.50;;;;;;;;;;4943358;28;20077;-64
2024/03/24 12:25:28;;;;;;;19.80;4.20;;;;;;;;;;4945919;28;20088;-64
2024/03/24 12:27:55;;;;;;;26.77;4.28;;;;;;;;;;4947394;28;20385;-64
2024/03/24 12:30:22;;;;;;;18.52;4.20;;;;;;;;;;4952745;28;20456;-64
2024/03/24 12:32:50;;;;;;;27.92;4.68;;;;;;;;;;4945276;28;20408;-64
2024/03/24 12:35:18;;;;;;;23.48;5.03;;;;;;;;;;4947716;28;20049;-64
2024/03/24 12:37:46;;;;;;;18.15;3.55;;;;;;;;;;4946916;28;20063;-64
2024/03/24 12:40:16;;;;;;;14.32;2.92;;;;;;;;;;4946538;28;20063;-64
2024/03/24 12:42:42;;;;;;;15.52;3.80;;;;;;;;;;4946240;28;20577;-64
2024/03/24 12:45:09;;;;;;;10.13;2.83;;;;;;;;;;4944713;28;20046;-64
2024/03/24 12:47:36;;;;;;;9.27;2.17;;;;;;;;;;4951272;28;20039;-63
2024/03/24 12:50:03;;;;;;;13.05;2.70;;;;;;;;;;4947834;28;20051;-64
2024/03/24 12:52:29;;;;;;;18.05;4.10;;;;;;;;;;4948093;28;20110;-64
2024/03/24 12:54:56;;;;;;;14.02;2.38;;;;;;;;;;4946357;28;20181;-64
2024/03/24 12:57:22;;;;;;;18.50;3.80;;;;;;;;;;4949015;29;20400;-66
2024/03/24 12:59:56;;;;;;;14.48;2.38;;;;;;;;;;4951367;28;20497;-66
2024/03/24 13:02:24;;;;;;;24.02;3.50;;;;;;;;;;4951111;28;20047;-65
2024/03/24 13:04:50;;;;;;;24.58;4.30;;;;;;;;;;4953160;28;20055;-66
2024/03/24 13:07:18;;;;;;;17.08;4.90;;;;;;;;;;4965710;28;20475;-66
2024/03/24 13:09:45;;;;;;;26.65;4.78;;;;;;;;;;4947215;28;20056;-66
2024/03/24 13:12:12;;;;;;;22.50;5.20;;;;;;;;;;4949226;28;20078;-65
2024/03/24 13:14:38;;;;;;;18.73;4.80;;;;;;;;;;4948107;28;20455;-66
2024/03/24 13:17:12;;;;;;;19.40;4.40;;;;;;;;;;4947805;28;20451;-66
2024/03/24 13:19:48;;;;;;;18.23;4.93;;;;;;;;;;4952054;28;20051;-66
2024/03/24 13:22:14;;;;;;;19.65;4.20;;;;;;;;;;4948039;28;20114;-66
2024/03/24 13:24:44;;;;;;;20.10;4.70;;;;;;;;;;4945220;28;20067;-65
2024/03/24 13:27:17;;;;;;;18.63;3.65;;;;;;;;;;4947451;28;20063;-66
2024/03/24 13:29:43;;;;;;;19.35;4.50;;;;;;;;;;4962612;28;20565;-66
2024/03/24 13:32:09;;;;;;;18.20;3.88;;;;;;;;;;4946887;28;20049;-66
2024/03/24 13:34:35;;;;;;;19.45;3.65;;;;;;;;;;4948996;28;20043;-66
2024/03/24 13:37:17;;;;;;;23.73;5.57;;;;;;;;;;4945322;28;20510;-65
2024/03/24 13:40:01;;;;;;;19.13;3.95;;;;;;;;;;4946836;28;20175;-66
2024/03/24 13:42:29;;;;;;;20.35;4.72;;;;;;;;;;4945459;28;20157;-66
2024/03/24 13:45:04;;;;;;;18.10;3.30;;;;;;;;;;4949896;28;20078;-65
2024/03/24 13:47:32;;;;;;;20.23;4.25;;;;;;;;;;4953068;28;20089;-65
2024/03/24 13:50:02;;;;;;;22.00;4.38;;;;;;;;;;4946256;28;20771;-66
2024/03/24 13:52:29;;;;;;;23.85;4.32;;;;;;;;;;4947335;28;20473;-66
2024/03/24 13:54:56;;;;;;;21.90;3.72;;;;;;;;;;4946370;28;20443;-65
2024/03/24 13:57:23;;;;;;;21.20;4.30;;;;;;;;;;4946741;29;20059;-66
2024/03/24 13:59:49;;;;;;;19.40;4.28;;;;;;;;;;4943775;29;20122;-65
2024/03/24 14:02:16;;;;;;;25.55;4.25;;;;;;;;;;4950340;28;21223;-65
2024/03/24 14:04:42;;;;;;;15.20;2.72;;;;;;;;;;4946937;29;20049;-65
2024/03/24 14:07:09;;;;;;;18.35;3.47;;;;;;;;;;4961777;28;20133;-65
2024/03/24 14:09:36;;;;;;;22.30;4.00;;;;;;;;;;4968755;28;20410;-66
2024/03/24 14:12:03;;;;;;;20.00;3.97;;;;;;;;;;4968474;28;20047;-65
2024/03/24 14:14:31;;;;;;;23.75;4.32;;;;;;;;;;4948689;28;20414;-66
2024/03/24 14:16:58;;;;;;;21.60;3.92;;;;;;;;;;4966757;28;20113;-66
2024/03/24 14:19:41;;;;;;;19.23;3.53;;;;;;;;;;4943607;28;20039;-66
2024/03/24 14:22:20;;;;;;;23.23;4.13;;;;;;;;;;4948984;28;20424;-66
2024/03/24 14:24:59;;;;;;;19.13;3.75;;;;;;;;;;4965273;28;20089;-66
2024/03/24 14:27:25;;;;;;;20.77;3.95;;;;;;;;;;4948953;28;20055;-66
2024/03/24 14:29:51;;;;;;;20.25;4.43;;;;;;;;;;4965895;28;20051;-66
2024/03/24 14:32:17;;;;;;;25.40;5.38;;;;;;;;;;4950284;28;20042;-66